sensor_id;sensor_type;location;lat;lon;timestamp;pressure;altitude;pressure_sealevel;temperature;humidity
59029;BME280;45919;51.420;5.454;2023-01-13T00:00:13;100303.59;;;9.69;82.91
59029;BME280;45919;51.420;5.454;2023-01-13T00:01:18;100307.94;;;9.71;83.30
59029;BME280;45919;51.420;5.454;2023-01-13T00:02:20;100307.94;;;9.71;82.61
59029;BME280;45919;51.420;5.454;2023-01-13T00:03:21;100314.84;;;9.67;82.57
59029;BME280;45919;51.420;5.454;2023-01-13T00:04:23;100318.34;;;9.69;82.44
59029;BME280;45919;51.420;5.454;2023-01-13T00:05:25;100320.94;;;9.66;82.70
59029;BME280;45919;51.420;5.454;2023-01-13T00:06:27;100319.16;;;9.65;82.66
59029;BME280;45919;51.420;5.454;2023-01-13T00:07:29;100325.28;;;9.67;82.11
59029;BME280;45919;51.420;5.454;2023-01-13T00:08:31;100325.25;;;9.62;81.94
59029;BME280;45919;51.420;5.454;2023-01-13T00:09:33;100308.69;;;9.57;82.22
59029;BME280;45919;51.420;5.454;2023-01-13T00:10:36;100307.78;;;9.55;82.14
59029;BME280;45919;51.420;5.454;2023-01-13T00:11:37;100310.31;;;9.49;82.69
59029;BME280;45919;51.420;5.454;2023-01-13T00:12:40;100312.09;;;9.51;82.62
59029;BME280;45919;51.420;5.454;2023-01-13T00:13:42;100315.59;;;9.55;82.35
59029;BME280;45919;51.420;5.454;2023-01-13T00:14:44;100314.63;;;9.48;82.78
59029;BME280;45919;51.420;5.454;2023-01-13T00:16:04;100301.69;;;9.56;83.06
59029;BME280;45919;51.420;5.454;2023-01-13T00:17:06;100312.09;;;9.50;81.74
59029;BME280;45919;51.420;5.454;2023-01-13T00:18:07;100311.97;;;9.42;81.78
59029;BME280;45919;51.420;5.454;2023-01-13T00:19:09;100312.91;;;9.45;81.60
59029;BME280;45919;51.420;5.454;2023-01-13T00:20:11;100318.09;;;9.42;81.77
59029;BME280;45919;51.420;5.454;2023-01-13T00:21:15;100310.22;;;9.41;81.70
59029;BME280;45919;51.420;5.454;2023-01-13T00:22:17;100317.16;;;9.39;81.92
59029;BME280;45919;51.420;5.454;2023-01-13T00:23:18;100321.50;;;9.40;81.57
59029;BME280;45919;51.420;5.454;2023-01-13T00:24:20;100311.97;;;9.40;81.10
59029;BME280;45919;51.420;5.454;2023-01-13T00:25:22;100307.59;;;9.41;81.41
59029;BME280;45919;51.420;5.454;2023-01-13T00:26:25;100307.59;;;9.39;81.72
59029;BME280;45919;51.420;5.454;2023-01-13T00:27:27;100267.38;;;9.17;81.38
59029;BME280;45919;51.420;5.454;2023-01-13T00:28:29;100303.19;;;9.33;81.43
59029;BME280;45919;51.420;5.454;2023-01-13T00:29:31;100291.00;;;9.31;81.91
59029;BME280;45919;51.420;5.454;2023-01-13T00:30:33;100295.31;;;9.29;81.73
59029;BME280;45919;51.420;5.454;2023-01-13T00:31:38;100275.28;;;9.23;82.02
59029;BME280;45919;51.420;5.454;2023-01-13T00:32:40;100288.34;;;9.28;81.02
59029;BME280;45919;51.420;5.454;2023-01-13T00:33:42;100289.19;;;9.25;81.56
59029;BME280;45919;51.420;5.454;2023-01-13T00:34:43;100272.66;;;9.21;81.61
59029;BME280;45919;51.420;5.454;2023-01-13T00:35:54;100282.31;;;9.30;81.71
59029;BME280;45919;51.420;5.454;2023-01-13T00:36:56;100282.19;;;9.23;81.41
59029;BME280;45919;51.420;5.454;2023-01-13T00:37:58;100276.09;;;9.20;82.04
59029;BME280;45919;51.420;5.454;2023-01-13T00:38:59;100272.63;;;9.20;81.90
59029;BME280;45919;51.420;5.454;2023-01-13T00:40:01;100283.00;;;9.15;82.34
59029;BME280;45919;51.420;5.454;2023-01-13T00:41:05;100269.09;;;9.15;82.74
59029;BME280;45919;51.420;5.454;2023-01-13T00:42:07;100271.66;;;9.13;82.41
59029;BME280;45919;51.420;5.454;2023-01-13T00:43:29;100274.31;;;9.15;82.61
59029;BME280;45919;51.420;5.454;2023-01-13T00:44:31;100263.84;;;9.13;82.37
59029;BME280;45919;51.420;5.454;2023-01-13T00:45:32;100262.09;;;9.11;82.99
59029;BME280;45919;51.420;5.454;2023-01-13T00:46:34;100262.91;;;9.06;82.91
59029;BME280;45919;51.420;5.454;2023-01-13T00:47:36;100252.50;;;9.06;82.98
59029;BME280;45919;51.420;5.454;2023-01-13T00:48:37;100255.09;;;9.06;83.56
59029;BME280;45919;51.420;5.454;2023-01-13T00:49:39;100261.19;;;9.05;83.91
59029;BME280;45919;51.420;5.454;2023-01-13T00:50:40;100248.88;;;8.95;83.91
59029;BME280;45919;51.420;5.454;2023-01-13T00:51:42;100255.06;;;9.03;83.71
59029;BME280;45919;51.420;5.454;2023-01-13T00:52:44;100260.28;;;9.03;83.90
59029;BME280;45919;51.420;5.454;2023-01-13T00:53:47;100245.47;;;9.01;84.34
59029;BME280;45919;51.420;5.454;2023-01-13T00:54:49;100254.16;;;9.00;84.43
59029;BME280;45919;51.420;5.454;2023-01-13T00:56:34;100258.59;;;9.07;84.53
59029;BME280;45919;51.420;5.454;2023-01-13T00:57:40;100260.25;;;9.00;84.61
59029;BME280;45919;51.420;5.454;2023-01-13T00:58:42;100239.28;;;8.89;84.61
59029;BME280;45919;51.420;5.454;2023-01-13T00:59:45;100257.59;;;8.97;84.78
59029;BME280;45919;51.420;5.454;2023-01-13T01:00:47;100250.66;;;8.97;84.72
59029;BME280;45919;51.420;5.454;2023-01-13T01:01:49;100248.00;;;8.93;85.00
59029;BME280;45919;51.420;5.454;2023-01-13T01:02:51;100255.84;;;8.96;84.53
59029;BME280;45919;51.420;5.454;2023-01-13T01:03:53;100261.97;;;8.98;84.64
59029;BME280;45919;51.420;5.454;2023-01-13T01:04:55;100248.03;;;8.97;84.78
59029;BME280;45919;51.420;5.454;2023-01-13T01:05:57;100256.72;;;8.96;84.80
59029;BME280;45919;51.420;5.454;2023-01-13T01:07:03;100248.81;;;8.90;84.85
59029;BME280;45919;51.420;5.454;2023-01-13T01:08:05;100254.13;;;8.96;84.69
59029;BME280;45919;51.420;5.454;2023-01-13T01:09:07;100260.19;;;8.97;84.54
59029;BME280;45919;51.420;5.454;2023-01-13T01:10:08;100259.34;;;8.98;84.57
59029;BME280;45919;51.420;5.454;2023-01-13T01:11:14;100256.75;;;9.00;84.02
59029;BME280;45919;51.420;5.454;2023-01-13T01:12:16;100262.78;;;8.97;84.31
59029;BME280;45919;51.420;5.454;2023-01-13T01:13:17;100263.69;;;8.99;84.11
59029;BME280;45919;51.420;5.454;2023-01-13T01:14:19;100263.72;;;9.01;83.76
59029;BME280;45919;51.420;5.454;2023-01-13T01:15:20;100261.09;;;9.01;83.40
59029;BME280;45919;51.420;5.454;2023-01-13T01:16:27;100269.84;;;9.04;82.98
59029;BME280;45919;51.420;5.454;2023-01-13T01:17:29;100266.38;;;9.05;82.99
59029;BME280;45919;51.420;5.454;2023-01-13T01:18:32;100275.03;;;9.04;83.52
59029;BME280;45919;51.420;5.454;2023-01-13T01:19:34;100256.75;;;8.98;82.78
59029;BME280;45919;51.420;5.454;2023-01-13T01:20:37;100275.13;;;9.11;82.99
59029;BME280;45919;51.420;5.454;2023-01-13T01:21:39;100263.91;;;9.15;82.66
59029;BME280;45919;51.420;5.454;2023-01-13T01:22:41;100278.69;;;9.20;81.96
59029;BME280;45919;51.420;5.454;2023-01-13T01:23:42;100284.78;;;9.21;81.74
59029;BME280;45919;51.420;5.454;2023-01-13T01:24:46;100273.53;;;9.22;81.43
59029;BME280;45919;51.420;5.454;2023-01-13T01:25:47;100279.59;;;9.21;81.84
59029;BME280;45919;51.420;5.454;2023-01-13T01:26:49;100268.25;;;9.19;81.72
59029;BME280;45919;51.420;5.454;2023-01-13T01:27:51;100270.88;;;9.19;81.08
59029;BME280;45919;51.420;5.454;2023-01-13T01:28:52;100262.16;;;9.17;81.43
59029;BME280;45919;51.420;5.454;2023-01-13T01:29:54;100263.00;;;9.14;81.23
59029;BME280;45919;51.420;5.454;2023-01-13T01:30:56;100263.03;;;9.17;80.71
59029;BME280;45919;51.420;5.454;2023-01-13T01:32:00;100276.03;;;9.14;80.80
59029;BME280;45919;51.420;5.454;2023-01-13T01:33:01;100272.53;;;9.12;80.79
59029;BME280;45919;51.420;5.454;2023-01-13T01:34:05;100246.25;;;8.93;80.68
59029;BME280;45919;51.420;5.454;2023-01-13T01:35:07;100278.63;;;9.13;79.68
59029;BME280;45919;51.420;5.454;2023-01-13T01:36:13;100275.13;;;9.11;80.11
59029;BME280;45919;51.420;5.454;2023-01-13T01:37:15;100279.44;;;9.08;80.04
59029;BME280;45919;51.420;5.454;2023-01-13T01:38:17;100251.44;;;8.92;79.94
59029;BME280;45919;51.420;5.454;2023-01-13T01:39:18;100272.44;;;9.06;79.60
59029;BME280;45919;51.420;5.454;2023-01-13T01:40:20;100279.34;;;9.02;80.13
59029;BME280;45919;51.420;5.454;2023-01-13T01:41:24;100278.50;;;9.03;79.79
59029;BME280;45919;51.420;5.454;2023-01-13T01:42:26;100246.97;;;8.78;79.97
59029;BME280;45919;51.420;5.454;2023-01-13T01:45:09;100279.31;;;8.97;79.20
59029;BME280;45919;51.420;5.454;2023-01-13T01:46:13;100282.69;;;8.92;79.51
59029;BME280;45919;51.420;5.454;2023-01-13T01:47:16;100286.19;;;8.91;79.40
59029;BME280;45919;51.420;5.454;2023-01-13T01:48:18;100278.38;;;8.91;79.16
59029;BME280;45919;51.420;5.454;2023-01-13T01:49:26;100285.31;;;8.92;78.82
59029;BME280;45919;51.420;5.454;2023-01-13T01:50:30;100273.97;;;8.88;78.39
59029;BME280;45919;51.420;5.454;2023-01-13T01:51:35;100278.31;;;8.88;78.38
59029;BME280;45919;51.420;5.454;2023-01-13T01:52:40;100264.34;;;8.82;78.35
59029;BME280;45919;51.420;5.454;2023-01-13T01:53:44;100286.13;;;8.88;77.96
59029;BME280;45919;51.420;5.454;2023-01-13T01:54:53;100278.28;;;8.84;78.32
59029;BME280;45919;51.420;5.454;2023-01-13T01:55:58;100250.25;;;8.65;77.86
59029;BME280;45919;51.420;5.454;2023-01-13T01:57:00;100274.69;;;8.76;76.60
59029;BME280;45919;51.420;5.454;2023-01-13T01:58:15;100280.06;;;8.87;77.94
59029;BME280;45919;51.420;5.454;2023-01-13T01:59:18;100258.91;;;8.64;76.47
59029;BME280;45919;51.420;5.454;2023-01-13T02:00:20;100282.50;;;8.75;76.60
59029;BME280;45919;51.420;5.454;2023-01-13T02:01:22;100283.38;;;8.77;76.06
59029;BME280;45919;51.420;5.454;2023-01-13T02:02:24;100279.81;;;8.71;76.67
59029;BME280;45919;51.420;5.454;2023-01-13T02:03:25;100290.25;;;8.73;75.97
59029;BME280;45919;51.420;5.454;2023-01-13T02:04:32;100285.97;;;8.77;76.01
59029;BME280;45919;51.420;5.454;2023-01-13T02:05:34;100286.81;;;8.72;76.54
59029;BME280;45919;51.420;5.454;2023-01-13T02:06:36;100295.44;;;8.70;76.31
59029;BME280;45919;51.420;5.454;2023-01-13T02:07:40;100284.13;;;8.69;76.05
59029;BME280;45919;51.420;5.454;2023-01-13T02:08:43;100278.88;;;8.63;76.43
59029;BME280;45919;51.420;5.454;2023-01-13T02:09:44;100279.69;;;8.60;76.43
59029;BME280;45919;51.420;5.454;2023-01-13T02:10:52;100281.47;;;8.65;76.51
59029;BME280;45919;51.420;5.454;2023-01-13T02:11:54;100280.56;;;8.63;76.61
59029;BME280;45919;51.420;5.454;2023-01-13T02:13:14;100287.56;;;8.64;76.48
59029;BME280;45919;51.420;5.454;2023-01-13T02:14:16;100281.38;;;8.58;76.28
59029;BME280;45919;51.420;5.454;2023-01-13T02:15:30;100237.69;;;8.40;76.69
59029;BME280;45919;51.420;5.454;2023-01-13T02:16:33;100263.88;;;8.49;76.72
59029;BME280;45919;51.420;5.454;2023-01-13T02:19:49;100244.84;;;8.52;77.74
59029;BME280;45919;51.420;5.454;2023-01-13T02:27:59;100266.53;;;8.53;78.55
59029;BME280;45919;51.420;5.454;2023-01-13T02:29:12;100261.22;;;8.46;78.69
59029;BME280;45919;51.420;5.454;2023-01-13T02:31:05;100266.47;;;8.48;78.87
59029;BME280;45919;51.420;5.454;2023-01-13T02:32:55;100281.16;;;8.46;79.01
59029;BME280;45919;51.420;5.454;2023-01-13T02:34:17;100274.09;;;8.35;78.86
59029;BME280;45919;51.420;5.454;2023-01-13T02:36:38;100280.19;;;8.36;79.50
59029;BME280;45919;51.420;5.454;2023-01-13T02:37:46;100285.38;;;8.34;79.65
59029;BME280;45919;51.420;5.454;2023-01-13T02:38:55;100273.97;;;8.28;79.88
59029;BME280;45919;51.420;5.454;2023-01-13T02:40:11;100290.59;;;8.37;79.82
59029;BME280;45919;51.420;5.454;2023-01-13T02:41:21;100281.91;;;8.37;79.70
59029;BME280;45919;51.420;5.454;2023-01-13T02:44:19;100290.66;;;8.41;79.95
59029;BME280;45919;51.420;5.454;2023-01-13T02:45:31;100288.06;;;8.42;79.64
59029;BME280;45919;51.420;5.454;2023-01-13T02:46:43;100285.47;;;8.44;79.74
59029;BME280;45919;51.420;5.454;2023-01-13T02:47:47;100275.97;;;8.46;79.45
59029;BME280;45919;51.420;5.454;2023-01-13T02:48:51;100278.56;;;8.46;79.83
59029;BME280;45919;51.420;5.454;2023-01-13T02:49:58;100193.72;;;7.98;79.40
59029;BME280;45919;51.420;5.454;2023-01-13T02:51:10;100274.44;;;8.57;79.61
59029;BME280;45919;51.420;5.454;2023-01-13T02:52:20;100274.44;;;8.57;79.86
59029;BME280;45919;51.420;5.454;2023-01-13T02:53:33;100273.63;;;8.61;79.57
59029;BME280;45919;51.420;5.454;2023-01-13T02:54:40;100273.63;;;8.60;79.57
59029;BME280;45919;51.420;5.454;2023-01-13T02:55:48;100274.53;;;8.64;79.31
59029;BME280;45919;51.420;5.454;2023-01-13T02:56:53;100264.13;;;8.64;79.33
59029;BME280;45919;51.420;5.454;2023-01-13T02:57:58;100272.84;;;8.67;78.57
59029;BME280;45919;51.420;5.454;2023-01-13T02:59:01;100269.41;;;8.70;78.80
59029;BME280;45919;51.420;5.454;2023-01-13T03:00:05;100261.59;;;8.71;79.28
59029;BME280;45919;51.420;5.454;2023-01-13T03:01:08;100260.75;;;8.71;79.33
59029;BME280;45919;51.420;5.454;2023-01-13T03:02:12;100241.50;;;8.59;78.77
59029;BME280;45919;51.420;5.454;2023-01-13T03:03:17;100267.75;;;8.77;78.56
59029;BME280;45919;51.420;5.454;2023-01-13T03:05:55;100263.53;;;8.85;77.92
59029;BME280;45919;51.420;5.454;2023-01-13T03:07:34;100244.41;;;8.83;78.33
59029;BME280;45919;51.420;5.454;2023-01-13T03:08:39;100260.06;;;8.88;78.24
59029;BME280;45919;51.420;5.454;2023-01-13T03:09:51;100255.75;;;8.90;77.67
59029;BME280;45919;51.420;5.454;2023-01-13T03:11:06;100223.44;;;8.72;77.59
59029;BME280;45919;51.420;5.454;2023-01-13T03:12:20;100251.53;;;8.96;77.73
59029;BME280;45919;51.420;5.454;2023-01-13T03:19:56;100244.69;;;9.06;76.98
59029;BME280;45919;51.420;5.454;2023-01-13T03:26:30;100281.16;;;9.06;76.38
59029;BME280;45919;51.420;5.454;2023-01-13T03:27:54;100256.91;;;9.14;76.95
59029;BME280;45919;51.420;5.454;2023-01-13T03:29:14;100246.47;;;9.11;76.65
59029;BME280;45919;51.420;5.454;2023-01-13T03:30:22;100250.75;;;9.05;76.34
59029;BME280;45919;51.420;5.454;2023-01-13T03:31:30;100256.81;;;9.04;75.52
59029;BME280;45919;51.420;5.454;2023-01-13T03:32:36;100257.78;;;9.11;75.02
59029;BME280;45919;51.420;5.454;2023-01-13T03:33:54;100260.44;;;9.17;75.16
59029;BME280;45919;51.420;5.454;2023-01-13T03:35:03;100253.41;;;9.12;74.77
59029;BME280;45919;51.420;5.454;2023-01-13T03:36:09;100258.69;;;9.15;75.03
59029;BME280;45919;51.420;5.454;2023-01-13T03:37:14;100258.69;;;9.15;74.54
59029;BME280;45919;51.420;5.454;2023-01-13T03:38:22;100263.03;;;9.16;73.71
59029;BME280;45919;51.420;5.454;2023-01-13T03:39:29;100255.22;;;9.16;74.12
59029;BME280;45919;51.420;5.454;2023-01-13T03:40:35;100267.44;;;9.21;73.90
59029;BME280;45919;51.420;5.454;2023-01-13T03:41:40;100273.53;;;9.24;73.69
59029;BME280;45919;51.420;5.454;2023-01-13T03:42:51;100257.81;;;9.17;73.99
59029;BME280;45919;51.420;5.454;2023-01-13T03:45:22;100263.97;;;9.23;72.80
59029;BME280;45919;51.420;5.454;2023-01-13T03:47:45;100276.97;;;9.21;74.21
59029;BME280;45919;51.420;5.454;2023-01-13T03:48:51;100273.53;;;9.24;74.36
59029;BME280;45919;51.420;5.454;2023-01-13T03:51:05;100269.16;;;9.19;75.06
59029;BME280;45919;51.420;5.454;2023-01-13T03:52:12;100260.50;;;9.22;75.42
59029;BME280;45919;51.420;5.454;2023-01-13T03:53:28;100262.16;;;9.17;76.09
59029;BME280;45919;51.420;5.454;2023-01-13T03:54:32;100260.31;;;9.08;76.54
59029;BME280;45919;51.420;5.454;2023-01-13T03:55:44;100256.88;;;9.09;77.06
59029;BME280;45919;51.420;5.454;2023-01-13T03:56:54;100251.59;;;9.04;77.42
59029;BME280;45919;51.420;5.454;2023-01-13T03:58:08;100264.63;;;9.06;77.13
59029;BME280;45919;51.420;5.454;2023-01-13T03:59:23;100268.03;;;8.99;77.60
59029;BME280;45919;51.420;5.454;2023-01-13T04:00:36;100260.13;;;8.91;78.10
59029;BME280;45919;51.420;5.454;2023-01-13T04:03:06;100262.72;;;8.91;78.19
59029;BME280;45919;51.420;5.454;2023-01-13T04:04:16;100233.81;;;8.70;78.38
59029;BME280;45919;51.420;5.454;2023-01-13T04:05:19;100257.38;;;8.80;78.88
59029;BME280;45919;51.420;5.454;2023-01-13T04:06:44;100246.22;;;8.89;79.15
59029;BME280;45919;51.420;5.454;2023-01-13T04:07:54;100271.25;;;8.79;79.42
59029;BME280;45919;51.420;5.454;2023-01-13T04:09:10;100250.41;;;8.79;79.49
59029;BME280;45919;51.420;5.454;2023-01-13T04:10:31;100254.81;;;8.84;79.99
59029;BME280;45919;51.420;5.454;2023-01-13T04:11:36;100248.81;;;8.89;79.79
59029;BME280;45919;51.420;5.454;2023-01-13T04:12:44;100258.19;;;8.76;80.35
59029;BME280;45919;51.420;5.454;2023-01-13T04:14:07;100264.22;;;8.73;80.47
59029;BME280;45919;51.420;5.454;2023-01-13T04:15:11;100261.59;;;8.70;80.52
59029;BME280;45919;51.420;5.454;2023-01-13T04:16:13;100250.28;;;8.68;80.89
59029;BME280;45919;51.420;5.454;2023-01-13T04:17:15;100261.63;;;8.73;80.42
59029;BME280;45919;51.420;5.454;2023-01-13T04:18:21;100252.88;;;8.68;81.26
59029;BME280;45919;51.420;5.454;2023-01-13T04:19:23;100251.97;;;8.66;81.62
59029;BME280;45919;51.420;5.454;2023-01-13T04:20:25;100257.16;;;8.63;81.56
59029;BME280;45919;51.420;5.454;2023-01-13T04:21:27;100264.97;;;8.63;81.83
59029;BME280;45919;51.420;5.454;2023-01-13T04:22:29;100258.84;;;8.59;82.39
59029;BME280;45919;51.420;5.454;2023-01-13T04:23:31;100264.06;;;8.60;82.33
59029;BME280;45919;51.420;5.454;2023-01-13T04:24:33;100271.81;;;8.56;82.49
59029;BME280;45919;51.420;5.454;2023-01-13T04:25:35;100270.88;;;8.52;83.18
59029;BME280;45919;51.420;5.454;2023-01-13T04:26:37;100256.97;;;8.52;83.08
59029;BME280;45919;51.420;5.454;2023-01-13T04:27:38;100248.09;;;8.37;83.34
59029;BME280;45919;51.420;5.454;2023-01-13T04:28:40;100252.53;;;8.46;83.57
59029;BME280;45919;51.420;5.454;2023-01-13T04:29:41;100248.97;;;8.39;83.43
59029;BME280;45919;51.420;5.454;2023-01-13T04:30:43;100253.41;;;8.46;83.51
59029;BME280;45919;51.420;5.454;2023-01-13T04:31:45;100253.41;;;8.46;83.81
59029;BME280;45919;51.420;5.454;2023-01-13T04:32:47;100251.69;;;8.45;83.61
59029;BME280;45919;51.420;5.454;2023-01-13T04:33:48;100256.94;;;8.48;83.67
59029;BME280;45919;51.420;5.454;2023-01-13T04:34:50;100247.41;;;8.51;83.01
59029;BME280;45919;51.420;5.454;2023-01-13T04:35:51;100245.63;;;8.48;83.11
59029;BME280;45919;51.420;5.454;2023-01-13T04:36:53;100255.22;;;8.49;83.10
59029;BME280;45919;51.420;5.454;2023-01-13T04:37:54;100250.03;;;8.51;83.20
59029;BME280;45919;51.420;5.454;2023-01-13T04:38:56;100241.22;;;8.44;82.88
59029;BME280;45919;51.420;5.454;2023-01-13T04:39:58;100257.81;;;8.51;83.12
59029;BME280;45919;51.420;5.454;2023-01-13T04:40:59;100258.69;;;8.51;83.38
59029;BME280;45919;51.420;5.454;2023-01-13T04:42:01;100257.81;;;8.49;83.48
59029;BME280;45919;51.420;5.454;2023-01-13T04:43:03;100253.47;;;8.49;83.20
59029;BME280;45919;51.420;5.454;2023-01-13T04:44:04;100258.69;;;8.51;82.96
59029;BME280;45919;51.420;5.454;2023-01-13T04:45:07;100269.16;;;8.53;83.45
59029;BME280;45919;51.420;5.454;2023-01-13T04:46:09;100258.75;;;8.54;82.97
59029;BME280;45919;51.420;5.454;2023-01-13T04:47:10;100257.88;;;8.55;82.60
59029;BME280;45919;51.420;5.454;2023-01-13T04:48:12;100265.81;;;8.61;82.53
59029;BME280;45919;51.420;5.454;2023-01-13T04:49:14;100264.94;;;8.61;82.45
59029;BME280;45919;51.420;5.454;2023-01-13T04:50:16;100264.97;;;8.64;82.78
59029;BME280;45919;51.420;5.454;2023-01-13T04:51:21;100262.38;;;8.66;82.55
59029;BME280;45919;51.420;5.454;2023-01-13T04:52:22;100275.50;;;8.70;81.61
59029;BME280;45919;51.420;5.454;2023-01-13T04:53:24;100256.34;;;8.67;82.31
59029;BME280;45919;51.420;5.454;2023-01-13T04:54:25;100267.69;;;8.72;81.53
59029;BME280;45919;51.420;5.454;2023-01-13T04:55:27;100254.63;;;8.69;80.90
59029;BME280;45919;51.420;5.454;2023-01-13T04:56:29;100269.50;;;8.76;80.94
59029;BME280;45919;51.420;5.454;2023-01-13T04:57:32;100264.31;;;8.79;80.83
59029;BME280;45919;51.420;5.454;2023-01-13T04:58:33;100265.22;;;8.81;80.96
59029;BME280;45919;51.420;5.454;2023-01-13T04:59:35;100264.34;;;8.82;80.25
59029;BME280;45919;51.420;5.454;2023-01-13T05:00:37;100258.31;;;8.83;80.79
59029;BME280;45919;51.420;5.454;2023-01-13T05:01:38;100253.06;;;8.82;80.77
59029;BME280;45919;51.420;5.454;2023-01-13T05:02:40;100262.63;;;8.83;80.94
59029;BME280;45919;51.420;5.454;2023-01-13T05:03:42;100243.44;;;8.75;80.54
59029;BME280;45919;51.420;5.454;2023-01-13T05:04:46;100220.78;;;8.67;80.56
59029;BME280;45919;51.420;5.454;2023-01-13T05:05:51;100258.38;;;8.91;79.79
59029;BME280;45919;51.420;5.454;2023-01-13T05:06:53;100260.94;;;8.88;79.90
59029;BME280;45919;51.420;5.454;2023-01-13T05:07:54;100257.44;;;8.86;79.75
59029;BME280;45919;51.420;5.454;2023-01-13T05:08:56;100255.72;;;8.87;79.78
59029;BME280;45919;51.420;5.454;2023-01-13T05:09:58;100263.53;;;8.85;80.01
59029;BME280;45919;51.420;5.454;2023-01-13T05:11:00;100260.03;;;8.84;79.35
59029;BME280;45919;51.420;5.454;2023-01-13T05:12:02;100249.59;;;8.83;78.92
59029;BME280;45919;51.420;5.454;2023-01-13T05:13:22;100253.03;;;8.80;79.38
59029;BME280;45919;51.420;5.454;2023-01-13T05:14:42;100258.22;;;8.77;79.26
59029;BME280;45919;51.420;5.454;2023-01-13T05:16:02;100258.16;;;8.72;79.18
59029;BME280;45919;51.420;5.454;2023-01-13T05:17:23;100263.25;;;8.65;79.56
59029;BME280;45919;51.420;5.454;2023-01-13T05:18:26;100254.63;;;8.67;79.32
59029;BME280;45919;51.420;5.454;2023-01-13T05:19:32;100251.97;;;8.66;79.03
59029;BME280;45919;51.420;5.454;2023-01-13T05:20:34;100263.16;;;8.58;79.45
59029;BME280;45919;51.420;5.454;2023-01-13T05:21:35;100257.88;;;8.54;79.45
59029;BME280;45919;51.420;5.454;2023-01-13T05:22:55;100263.84;;;8.48;78.98
59029;BME280;45919;51.420;5.454;2023-01-13T05:24:16;100249.16;;;8.52;78.90
59029;BME280;45919;51.420;5.454;2023-01-13T05:25:40;100260.44;;;8.51;79.18
59029;BME280;45919;51.420;5.454;2023-01-13T05:26:44;100248.16;;;8.42;79.30
59029;BME280;45919;51.420;5.454;2023-01-13T05:27:50;100236.72;;;8.32;79.33
59029;BME280;45919;51.420;5.454;2023-01-13T05:28:52;100264.59;;;8.37;79.61
59029;BME280;45919;51.420;5.454;2023-01-13T05:29:54;100244.69;;;8.41;78.10
59029;BME280;45919;51.420;5.454;2023-01-13T05:30:56;100250.72;;;8.40;78.21
59029;BME280;45919;51.420;5.454;2023-01-13T05:31:57;100250.69;;;8.37;78.16
59029;BME280;45919;51.420;5.454;2023-01-13T05:33:01;100222.59;;;8.12;78.17
59029;BME280;45919;51.420;5.454;2023-01-13T05:34:03;100266.28;;;8.35;77.86
59029;BME280;45919;51.420;5.454;2023-01-13T05:35:05;100260.22;;;8.36;77.87
59029;BME280;45919;51.420;5.454;2023-01-13T05:36:07;100270.63;;;8.36;77.68
59029;BME280;45919;51.420;5.454;2023-01-13T05:37:09;100267.16;;;8.36;77.40
59029;BME280;45919;51.420;5.454;2023-01-13T05:38:12;100267.16;;;8.34;77.95
59029;BME280;45919;51.420;5.454;2023-01-13T05:39:14;100265.34;;;8.32;77.87
59029;BME280;45919;51.420;5.454;2023-01-13T05:40:17;100211.09;;;7.99;77.88
59029;BME280;45919;51.420;5.454;2023-01-13T05:41:37;100260.13;;;8.30;77.88
59029;BME280;45919;51.420;5.454;2023-01-13T05:43:11;100261.97;;;8.37;77.88
59029;BME280;45919;51.420;5.454;2023-01-13T05:44:24;100247.88;;;8.23;77.77
59029;BME280;45919;51.420;5.454;2023-01-13T05:45:26;100253.91;;;8.22;77.81
59029;BME280;45919;51.420;5.454;2023-01-13T05:46:27;100260.94;;;8.28;77.40
59029;BME280;45919;51.420;5.454;2023-01-13T05:47:30;100268.72;;;8.24;77.37
59029;BME280;45919;51.420;5.454;2023-01-13T05:48:40;100264.41;;;8.25;77.30
59029;BME280;45919;51.420;5.454;2023-01-13T05:49:42;100262.56;;;8.18;77.67
59029;BME280;45919;51.420;5.454;2023-01-13T05:50:45;100264.25;;;8.17;77.49
59029;BME280;45919;51.420;5.454;2023-01-13T05:51:46;100270.34;;;8.16;77.16
59029;BME280;45919;51.420;5.454;2023-01-13T05:52:48;100278.16;;;8.16;76.94
59029;BME280;45919;51.420;5.454;2023-01-13T05:53:50;100273.72;;;8.12;76.90
59029;BME280;45919;51.420;5.454;2023-01-13T05:54:52;100274.56;;;8.11;76.69
59029;BME280;45919;51.420;5.454;2023-01-13T05:55:53;100265.03;;;8.10;77.04
59029;BME280;45919;51.420;5.454;2023-01-13T05:56:55;100266.75;;;8.11;76.36
59029;BME280;45919;51.420;5.454;2023-01-13T05:57:56;100274.69;;;8.17;75.94
59029;BME280;45919;51.420;5.454;2023-01-13T05:58:58;100272.88;;;8.13;76.40
59029;BME280;45919;51.420;5.454;2023-01-13T05:59:59;100270.25;;;8.11;76.25
59029;BME280;45919;51.420;5.454;2023-01-13T06:01:03;100269.34;;;8.11;76.46
59029;BME280;45919;51.420;5.454;2023-01-13T06:02:05;100274.53;;;8.09;76.25
59029;BME280;45919;51.420;5.454;2023-01-13T06:03:08;100262.47;;;8.14;75.74
59029;BME280;45919;51.420;5.454;2023-01-13T06:04:09;100268.53;;;8.12;76.11
59029;BME280;45919;51.420;5.454;2023-01-13T06:05:11;100277.13;;;8.08;76.50
59029;BME280;45919;51.420;5.454;2023-01-13T06:06:13;100264.97;;;8.07;76.48
59029;BME280;45919;51.420;5.454;2023-01-13T06:07:14;100282.31;;;8.08;76.40
59029;BME280;45919;51.420;5.454;2023-01-13T06:08:16;100273.69;;;8.09;76.27
59029;BME280;45919;51.420;5.454;2023-01-13T06:09:19;100276.28;;;8.09;76.46
59029;BME280;45919;51.420;5.454;2023-01-13T06:10:24;100271.00;;;8.04;76.08
59029;BME280;45919;51.420;5.454;2023-01-13T06:11:26;100283.25;;;8.11;76.33
59029;BME280;45919;51.420;5.454;2023-01-13T06:12:27;100280.59;;;8.07;76.81
59029;BME280;45919;51.420;5.454;2023-01-13T06:13:29;100278.78;;;8.02;76.92
59029;BME280;45919;51.420;5.454;2023-01-13T06:14:31;100277.81;;;7.96;77.29
59029;BME280;45919;51.420;5.454;2023-01-13T06:15:40;100292.69;;;8.05;76.96
59029;BME280;45919;51.420;5.454;2023-01-13T06:16:42;100274.31;;;7.95;76.66
59029;BME280;45919;51.420;5.454;2023-01-13T06:17:46;100296.94;;;7.99;77.33
59029;BME280;45919;51.420;5.454;2023-01-13T06:18:47;100300.41;;;8.00;77.44